Terminal Aerodrome Forecast
Issued by NWS Sioux Falls, SD

Home | Current Version | Previous Version | Text Only | Print | Product List | Glossary On
Versions: 1 2 3 4 5 6 7 8 9 10 11 12 13 14 15 16 17 18 19 20 21 22 23 24 25 26 27 28 29 30 31 32 33 34 35 36 37 38
000
FTUS43 KFSD 140520
TAFSUX
TAF
KSUX 140520Z 1406/1506 14015KT P6SM OVC040
     FM140900 14014G22KT 6SM -SN SCT025 OVC035
      TEMPO 1409/1412 3SM -SN BKN025
     FM141300 18012KT P6SM OVC020
     FM141800 25008KT P6SM BKN035
     FM142300 18006KT P6SM BKN080=

USA.gov is the U.S. government's official web portal to all federal, state and local government web resources and services.